createdAt,value
2024-02-02T00:00:18.464Z,97321.91
2024-02-02T00:01:20.754Z,97311.28
2024-02-02T00:02:22.606Z,97319.69
2024-02-02T00:03:24.449Z,97326.50
2024-02-02T00:04:26.627Z,97324.59
2024-02-02T00:05:28.504Z,97319.69
2024-02-02T00:06:30.851Z,97321.59
2024-02-02T00:07:33.467Z,97321.31
2024-02-02T00:08:35.656Z,97325.94
2024-02-02T00:09:37.742Z,97318.31
2024-02-02T00:10:40.786Z,97316.41
2024-02-02T00:11:43.659Z,97318.59
2024-02-02T00:12:45.602Z,97319.69
2024-02-02T00:13:47.855Z,97316.69
2024-02-02T00:14:49.776Z,97315.59
2024-02-02T00:15:53.910Z,97322.13
2024-02-02T00:16:55.688Z,97317.25
2024-02-02T00:17:57.721Z,97325.94
2024-02-02T00:18:59.684Z,97328.13
2024-02-02T00:20:02.055Z,97321.03
2024-02-02T00:21:04.617Z,97316.16
2024-02-02T00:22:06.866Z,97324.88
2024-02-02T00:23:08.960Z,97315.88
2024-02-02T00:24:10.791Z,97314.25
2024-02-02T00:25:12.644Z,97319.97
2024-02-02T00:26:14.821Z,97314.50
2024-02-02T00:27:17.954Z,97312.88
2024-02-02T00:28:20.013Z,97314.25
2024-02-02T00:29:22.048Z,97316.97
2024-02-02T00:30:23.853Z,97321.59
2024-02-02T00:31:25.683Z,97311.84
2024-02-02T00:32:28.253Z,97302.63
2024-02-02T00:33:30.663Z,97304.81
2024-02-02T00:34:33.131Z,97304.31
2024-02-02T00:35:35.302Z,97305.38
2024-02-02T00:36:37.175Z,97311.38
2024-02-02T00:37:39.607Z,97317.88
2024-02-02T00:38:41.930Z,97313.81
2024-02-02T00:39:44.221Z,97300.75
2024-02-02T00:40:46.277Z,97308.06
2024-02-02T00:41:48.167Z,97312.44
2024-02-02T00:42:52.665Z,97311.31
2024-02-02T00:43:54.766Z,97304.78
2024-02-02T00:44:59.046Z,97302.06
2024-02-02T00:46:01.696Z,97314.06
2024-02-02T00:47:03.994Z,97311.03
2024-02-02T00:48:07.906Z,97311.81
2024-02-02T00:49:10.145Z,97306.38
2024-02-02T00:50:12.504Z,97306.38
2024-02-02T00:51:14.952Z,97311.00
2024-02-02T00:52:16.853Z,97310.69
2024-02-02T00:53:19.280Z,97320.75
2024-02-02T00:54:21.550Z,97313.41
2024-02-02T00:55:23.299Z,97314.50
2024-02-02T00:56:25.987Z,97329.19
2024-02-02T00:57:29.671Z,97322.38
2024-02-02T00:58:31.825Z,97324.31
2024-02-02T00:59:34.375Z,97332.75
2024-02-02T01:00:36.549Z,97330.03
2024-02-02T01:01:40.958Z,97331.66
2024-02-02T01:02:43.097Z,97328.13
2024-02-02T01:03:44.857Z,97333.59
2024-02-02T01:04:47.626Z,97329.22
2024-02-02T01:05:49.658Z,97337.16
2024-02-02T01:06:51.847Z,97327.09
2024-02-02T01:07:54.237Z,97334.16
2024-02-02T01:08:55.913Z,97328.47
2024-02-02T01:09:58.870Z,97328.19
2024-02-02T01:11:02.272Z,97326.28
2024-02-02T01:12:06.342Z,97324.31
2024-02-02T01:13:08.223Z,97325.94
2024-02-02T01:14:10.449Z,97318.84
2024-02-02T01:15:12.595Z,97318.31
2024-02-02T01:16:15.110Z,97324.84
2024-02-02T01:17:17.397Z,97316.69
2024-02-02T01:18:19.952Z,97324.88
2024-02-02T01:19:22.923Z,97325.94
2024-02-02T01:20:25.487Z,97322.97
2024-02-02T01:21:27.536Z,97330.03
2024-02-02T01:22:29.265Z,97322.41
2024-02-02T01:23:30.911Z,97317.25
2024-02-02T01:24:33.307Z,97315.34
2024-02-02T01:25:35.261Z,97320.78
2024-02-02T01:26:37.521Z,97314.75
2024-02-02T01:27:40.206Z,97307.69
2024-02-02T01:28:42.177Z,97304.63
2024-02-02T01:29:43.925Z,97304.63
2024-02-02T01:30:47.481Z,97304.84
2024-02-02T01:31:49.406Z,97311.41
2024-02-02T01:32:51.666Z,97319.84
2024-02-02T01:33:53.911Z,97318.53
2024-02-02T01:34:55.835Z,97318.28
2024-02-02T01:35:57.931Z,97326.47
2024-02-02T01:36:59.709Z,97333.84
2024-02-02T01:38:01.527Z,97332.00
2024-02-02T01:39:05.625Z,97329.81
2024-02-02T01:40:08.570Z,97335.81
2024-02-02T01:41:10.687Z,97314.09
2024-02-02T01:43:15.155Z,97316.00
2024-02-02T01:44:17.242Z,97314.09
2024-02-02T01:45:19.232Z,97317.63
2024-02-02T01:46:21.753Z,97311.63
2024-02-02T01:47:23.535Z,97303.47
2024-02-02T01:48:27.301Z,97308.34
2024-02-02T01:49:29.617Z,97301.03
2024-02-02T01:50:31.769Z,97305.38
2024-02-02T01:51:36.144Z,97310.28
2024-02-02T01:52:38.024Z,97309.19
2024-02-02T01:53:39.884Z,97299.94
2024-02-02T01:54:42.028Z,97306.47
2024-02-02T01:55:44.015Z,97304.00
2024-02-02T01:56:47.917Z,97298.56
2024-02-02T01:57:49.825Z,97295.84
2024-02-02T01:58:53.513Z,97298.28
2024-02-02T01:59:58.346Z,97296.13
2024-02-02T02:01:01.502Z,97301.00
2024-02-02T02:02:08.307Z,97305.91
2024-02-02T02:03:10.500Z,97303.19
2024-02-02T02:04:13.789Z,97305.09
2024-02-02T02:05:16.067Z,97309.72
2024-02-02T02:06:19.079Z,97307.56
2024-02-02T02:07:21.474Z,97307.00
2024-02-02T02:08:24.208Z,97309.72
2024-02-02T02:09:26.416Z,97302.09
2024-02-02T02:10:28.671Z,97301.28
2024-02-02T02:11:33.185Z,97305.91
2024-02-02T02:12:36.015Z,97303.47
2024-02-02T02:13:39.531Z,97300.47
2024-02-02T02:14:42.564Z,97302.13
2024-02-02T02:15:45.413Z,97298.31
2024-02-02T02:16:49.082Z,97290.69
2024-02-02T02:17:54.254Z,97300.22
2024-02-02T02:19:02.863Z,97288.78
2024-02-02T02:20:12.441Z,97282.25
2024-02-02T02:21:27.079Z,97285.78
2024-02-02T02:22:29.498Z,97280.34
2024-02-02T02:23:36.969Z,97278.44
2024-02-02T02:24:38.932Z,97281.69
2024-02-02T02:25:44.481Z,97274.09
2024-02-02T02:26:47.868Z,97265.63
2024-02-02T02:27:51.062Z,97265.09
2024-02-02T02:28:57.928Z,97267.28
2024-02-02T02:30:02.223Z,97260.47
2024-02-02T02:31:05.967Z,97267.53
2024-02-02T02:32:09.451Z,97256.16
2024-02-02T02:33:13.172Z,97260.22
2024-02-02T02:34:15.855Z,97250.97
2024-02-02T02:35:19.422Z,97251.22
2024-02-02T02:36:25.614Z,97252.88
2024-02-02T02:37:29.356Z,97258.84
2024-02-02T02:38:35.143Z,97247.97
2024-02-02T02:39:39.696Z,97253.69
2024-02-02T02:40:43.365Z,97246.34
2024-02-02T02:41:46.372Z,97250.41
2024-02-02T02:42:51.767Z,97252.88
2024-02-02T02:43:53.974Z,97250.16
2024-02-02T02:44:55.825Z,97248.78
2024-02-02T02:45:59.765Z,97245.53
2024-02-02T02:47:02.518Z,97254.78
2024-02-02T02:48:06.032Z,97250.97
2024-02-02T02:49:10.960Z,97251.25
2024-02-02T02:50:13.261Z,97244.72
2024-02-02T02:51:15.421Z,97243.09
2024-02-02T02:52:17.978Z,97243.09
2024-02-02T02:53:20.815Z,97240.66
2024-02-02T02:54:22.611Z,97243.88
2024-02-02T02:55:24.605Z,97245.53
2024-02-02T02:56:26.460Z,97238.44
2024-02-02T02:57:29.569Z,97237.66
2024-02-02T02:58:32.607Z,97243.88
2024-02-02T02:59:34.585Z,97239.56
2024-02-02T03:00:37.504Z,97242.00
2024-02-02T03:01:39.919Z,97245.53
2024-02-02T03:02:42.118Z,97245.00
2024-02-02T03:03:45.209Z,97252.88
2024-02-02T03:04:47.865Z,97241.47
2024-02-02T03:05:50.472Z,97245.00
2024-02-02T03:06:53.052Z,97249.31
2024-02-02T03:07:55.887Z,97254.50
2024-02-02T03:08:58.554Z,97255.59
2024-02-02T03:10:01.173Z,97253.16
2024-02-02T03:11:02.999Z,97268.91
2024-02-02T03:12:06.706Z,97262.41
2024-02-02T03:13:08.683Z,97266.75
2024-02-02T03:14:12.169Z,97271.38
2024-02-02T03:15:13.907Z,97268.09
2024-02-02T03:16:15.694Z,97268.38
2024-02-02T03:17:18.012Z,97277.09
2024-02-02T03:18:21.210Z,97276.25
2024-02-02T03:19:23.237Z,97266.47
2024-02-02T03:20:27.959Z,97267.03
2024-02-02T03:21:29.853Z,97266.75
2024-02-02T03:22:31.769Z,97265.66
2024-02-02T03:23:33.972Z,97269.75
2024-02-02T03:24:35.873Z,97263.22
2024-02-02T03:25:37.917Z,97259.94
2024-02-02T03:26:39.652Z,97268.66
2024-02-02T03:27:41.607Z,97265.41
2024-02-02T03:28:43.368Z,97268.94
2024-02-02T03:29:45.183Z,97260.22
2024-02-02T03:30:47.319Z,97268.38
2024-02-02T03:31:49.697Z,97259.41
2024-02-02T03:32:51.732Z,97267.84
2024-02-02T03:33:53.718Z,97263.22
2024-02-02T03:34:55.940Z,97261.28
2024-02-02T03:35:57.758Z,97263.75
2024-02-02T03:36:59.889Z,97261.03
2024-02-02T03:38:04.551Z,97264.28
2024-02-02T03:39:06.650Z,97256.66
2024-02-02T03:40:10.303Z,97253.69
2024-02-02T03:41:12.097Z,97265.94
2024-02-02T03:42:14.233Z,97261.28
2024-02-02T03:43:17.046Z,97256.97
2024-02-02T03:44:20.210Z,97263.47
2024-02-02T03:45:21.933Z,97259.13
2024-02-02T03:46:24.121Z,97259.38
2024-02-02T03:47:26.279Z,97262.94
2024-02-02T03:48:28.159Z,97260.50
2024-02-02T03:49:30.455Z,97260.50
2024-02-02T03:50:35.472Z,97264.31
2024-02-02T03:51:37.479Z,97268.38
2024-02-02T03:52:39.326Z,97269.47
2024-02-02T03:53:41.079Z,97268.91
2024-02-02T03:54:42.851Z,97276.00
2024-02-02T03:55:44.709Z,97273.81
2024-02-02T03:56:47.404Z,97263.50
2024-02-02T03:57:49.502Z,97258.06
2024-02-02T03:58:51.179Z,97264.75
2024-02-02T03:59:53.276Z,97270.72
2024-02-02T04:00:55.232Z,97276.41
2024-02-02T04:01:57.099Z,97269.84
2024-02-02T04:02:58.963Z,97264.09
2024-02-02T04:04:01.403Z,97264.34
2024-02-02T04:05:05.274Z,97260.22
2024-02-02T04:06:07.230Z,97263.72
2024-02-02T04:07:09.001Z,97258.00
2024-02-02T04:08:10.654Z,97262.84
2024-02-02T04:09:12.884Z,97253.56
2024-02-02T04:10:16.144Z,97254.41
2024-02-02T04:11:18.181Z,97259.81
2024-02-02T04:12:19.966Z,97261.44
2024-02-02T04:13:21.940Z,97257.34
2024-02-02T04:14:24.511Z,97253.25
2024-02-02T04:15:27.025Z,97257.84
2024-02-02T04:16:29.949Z,97259.97
2024-02-02T04:17:32.239Z,97263.47
2024-02-02T04:18:34.746Z,97259.44
2024-02-02T04:19:36.878Z,97251.47
2024-02-02T04:20:38.792Z,97253.13
2024-02-02T04:21:40.548Z,97251.47
2024-02-02T04:22:42.881Z,97253.13
2024-02-02T04:23:44.666Z,97250.72
2024-02-02T04:24:51.320Z,97252.06
2024-02-02T04:25:53.364Z,97260.25
2024-02-02T04:26:55.300Z,97253.44
2024-02-02T04:27:57.062Z,97258.88
2024-02-02T04:28:59.070Z,97268.47
2024-02-02T04:30:01.093Z,97272.78
2024-02-02T04:31:02.975Z,97264.59
2024-02-02T04:32:05.145Z,97270.59
2024-02-02T04:33:08.152Z,97259.94
2024-02-02T04:34:10.653Z,97271.91
2024-02-02T04:35:12.402Z,97274.91
2024-02-02T04:36:15.212Z,97271.09
2024-02-02T04:37:17.167Z,97267.81
2024-02-02T04:38:20.420Z,97272.72
2024-02-02T04:39:22.514Z,97271.94
2024-02-02T04:40:24.314Z,97270.59
2024-02-02T04:41:27.842Z,97282.53
2024-02-02T04:42:29.687Z,97279.81
2024-02-02T04:43:31.798Z,97279.06
2024-02-02T04:44:33.596Z,97284.50
2024-02-02T04:45:37.932Z,97286.41
2024-02-02T04:46:39.649Z,97290.47
2024-02-02T04:47:41.407Z,97280.44
2024-02-02T04:48:43.235Z,97283.69
2024-02-02T04:49:45.537Z,97292.09
2024-02-02T04:50:48.065Z,97294.84
2024-02-02T04:51:50.369Z,97296.16
2024-02-02T04:52:52.084Z,97303.72
2024-02-02T04:53:53.964Z,97295.41
2024-02-02T04:54:57.117Z,97298.63
2024-02-02T04:55:59.568Z,97289.06
2024-02-02T04:57:01.922Z,97293.38
2024-02-02T04:58:06.427Z,97296.16
2024-02-02T04:59:08.405Z,97299.13
2024-02-02T05:00:12.230Z,97303.78
2024-02-02T05:01:14.052Z,97300.25
2024-02-02T05:02:16.916Z,97296.66
2024-02-02T05:03:20.074Z,97302.06
2024-02-02T05:04:22.202Z,97294.38
2024-02-02T05:05:24.753Z,97299.25
2024-02-02T05:06:26.697Z,97300.59
2024-02-02T05:07:28.880Z,97310.31
2024-02-02T05:08:32.575Z,97314.34
2024-02-02T05:09:34.397Z,97312.13
2024-02-02T05:10:37.165Z,97317.81
2024-02-02T05:11:38.993Z,97318.34
2024-02-02T05:12:41.015Z,97317.53
2024-02-02T05:13:43.761Z,97325.59
2024-02-02T05:14:46.674Z,97327.47
2024-02-02T05:15:50.432Z,97320.13
2024-02-02T05:16:52.209Z,97329.09
2024-02-02T05:17:54.403Z,97329.59
2024-02-02T05:18:56.583Z,97325.00
2024-02-02T05:19:59.859Z,97327.69
2024-02-02T05:21:01.621Z,97317.09
2024-02-02T05:22:04.502Z,97321.94
2024-02-02T05:23:07.444Z,97321.38
2024-02-02T05:24:22.040Z,97318.38
2024-02-02T05:25:31.848Z,97326.50
2024-02-02T05:26:33.575Z,97321.03
2024-02-02T05:27:35.470Z,97321.84
2024-02-02T05:28:37.414Z,97312.88
2024-02-02T05:29:41.048Z,97316.13
2024-02-02T05:30:43.374Z,97324.03
2024-02-02T05:31:45.981Z,97321.59
2024-02-02T05:32:49.000Z,97317.25
2024-02-02T05:33:51.339Z,97328.06
2024-02-02T05:34:53.389Z,97329.72
2024-02-02T05:35:55.424Z,97324.28
2024-02-02T05:36:58.181Z,97316.41
2024-02-02T05:38:01.582Z,97322.06
2024-02-02T05:39:06.494Z,97320.72
2024-02-02T05:40:09.769Z,97323.69
2024-02-02T05:41:13.141Z,97317.13
2024-02-02T05:42:20.311Z,97314.69
2024-02-02T05:43:22.018Z,97325.59
2024-02-02T05:44:23.824Z,97324.75
2024-02-02T05:45:26.230Z,97325.59
2024-02-02T05:46:28.063Z,97323.09
2024-02-02T05:47:29.934Z,97330.69
2024-02-02T05:48:31.893Z,97328.50
2024-02-02T05:49:34.256Z,97338.22
2024-02-02T05:50:36.189Z,97336.00
2024-02-02T05:51:39.374Z,97339.81
2024-02-02T05:52:41.092Z,97340.06
2024-02-02T05:53:42.786Z,97343.84
2024-02-02T05:54:45.287Z,97349.25
2024-02-02T05:55:47.668Z,97339.72
2024-02-02T05:56:49.879Z,97345.97
2024-02-02T05:57:51.623Z,97351.72
2024-02-02T05:58:53.689Z,97350.56
2024-02-02T05:59:56.960Z,97354.66
2024-02-02T06:01:00.255Z,97356.81
2024-02-02T06:02:02.547Z,97355.16
2024-02-02T06:03:05.974Z,97349.50
2024-02-02T06:04:08.416Z,97350.06
2024-02-02T06:05:11.334Z,97358.19
2024-02-02T06:06:14.597Z,97353.53
2024-02-02T06:07:17.255Z,97352.22
2024-02-02T06:08:19.220Z,97360.09
2024-02-02T06:09:21.047Z,97346.53
2024-02-02T06:10:23.014Z,97348.44
2024-02-02T06:11:24.831Z,97344.41
2024-02-02T06:12:26.682Z,97343.84
2024-02-02T06:13:28.845Z,97346.22
2024-02-02T06:14:34.259Z,97343.59
2024-02-02T06:15:36.206Z,97343.84
2024-02-02T06:16:38.231Z,97344.66
2024-02-02T06:17:41.209Z,97348.19
2024-02-02T06:18:43.601Z,97349.25
2024-02-02T06:19:46.312Z,97362.25
2024-02-02T06:20:49.075Z,97344.94
2024-02-02T06:21:51.258Z,97345.47
2024-02-02T06:22:53.176Z,97349.53
2024-02-02T06:23:56.816Z,97352.56
2024-02-02T06:24:58.644Z,97353.63
2024-02-02T06:26:00.407Z,97346.66
2024-02-02T06:27:02.599Z,97348.59
2024-02-02T06:28:04.869Z,97349.13
2024-02-02T06:29:09.604Z,97350.47
2024-02-02T06:30:12.859Z,97344.44
2024-02-02T06:31:15.308Z,97341.78
2024-02-02T06:32:21.994Z,97348.28
2024-02-02T06:33:23.803Z,97346.41
2024-02-02T06:34:27.916Z,97349.91
2024-02-02T06:35:30.277Z,97343.13
2024-02-02T06:36:32.120Z,97352.06
2024-02-02T06:37:34.166Z,97346.09
2024-02-02T06:38:36.224Z,97347.97
2024-02-02T06:39:37.953Z,97348.47
2024-02-02T06:40:41.768Z,97357.41
2024-02-02T06:41:45.015Z,97348.72
2024-02-02T06:42:47.396Z,97346.59
2024-02-02T06:43:49.274Z,97351.75
2024-02-02T06:44:52.896Z,97342.56
2024-02-02T06:45:56.438Z,97350.47
2024-02-02T06:46:58.811Z,97351.81
2024-02-02T06:48:00.920Z,97350.47
2024-02-02T06:49:02.854Z,97351.84
2024-02-02T06:50:05.953Z,97359.50
2024-02-02T06:51:08.838Z,97349.16
2024-02-02T06:52:10.842Z,97361.91
2024-02-02T06:53:13.801Z,97357.38
2024-02-02T06:54:15.713Z,97362.09
2024-02-02T06:55:17.997Z,97362.84
2024-02-02T06:56:43.034Z,97365.88
2024-02-02T06:57:46.441Z,97361.53
2024-02-02T06:58:50.947Z,97365.63
2024-02-02T06:59:54.355Z,97359.06
2024-02-02T07:00:57.755Z,97367.38
2024-02-02T07:02:00.813Z,97361.00
2024-02-02T07:03:02.770Z,97369.84
2024-02-02T07:04:09.580Z,97378.06
2024-02-02T07:05:14.463Z,97379.25
2024-02-02T07:06:18.900Z,97367.59
2024-02-02T07:07:20.858Z,97373.91
2024-02-02T07:08:22.945Z,97363.91
2024-02-02T07:09:34.623Z,97371.28
2024-02-02T07:10:36.430Z,97371.09
2024-02-02T07:12:00.150Z,97373.81
2024-02-02T07:13:03.191Z,97371.94
2024-02-02T07:14:10.434Z,97373.06
2024-02-02T07:15:22.605Z,97370.84
2024-02-02T07:16:31.816Z,97366.53
2024-02-02T07:17:38.924Z,97371.47
2024-02-02T07:18:43.661Z,97361.94
2024-02-02T07:19:45.928Z,97370.13
2024-02-02T07:20:56.494Z,97365.78
2024-02-02T07:21:58.299Z,97362.25
2024-02-02T07:23:03.150Z,97372.56
2024-02-02T07:24:05.479Z,97369.88
2024-02-02T07:25:28.543Z,97379.94
2024-02-02T07:26:34.071Z,97390.53
2024-02-02T07:27:49.376Z,97388.94
2024-02-02T07:28:51.431Z,97391.91
2024-02-02T07:29:54.185Z,97396.53
2024-02-02T07:30:56.965Z,97392.44
2024-02-02T07:32:05.669Z,97397.34
2024-02-02T07:33:18.398Z,97395.19
2024-02-02T07:34:43.092Z,97396.28
2024-02-02T07:35:45.298Z,97396.84
2024-02-02T07:36:47.042Z,97400.88
2024-02-02T07:37:49.731Z,97396.00
2024-02-02T07:38:56.856Z,97400.88
2024-02-02T07:40:00.615Z,97399.25
2024-02-02T07:41:06.594Z,97397.97
2024-02-02T07:42:14.957Z,97397.97
2024-02-02T07:43:18.038Z,97387.91
2024-02-02T07:44:19.989Z,97384.88
2024-02-02T07:45:24.590Z,97396.31
2024-02-02T07:46:26.978Z,97392.78
2024-02-02T07:47:31.681Z,97390.03
2024-02-02T07:48:36.077Z,97390.63
2024-02-02T07:49:39.037Z,97399.34
2024-02-02T07:50:40.812Z,97397.69
2024-02-02T07:51:44.564Z,97395.53
2024-02-02T07:52:47.124Z,97396.69
2024-02-02T07:53:50.488Z,97398.34
2024-02-02T07:54:52.511Z,97386.63
2024-02-02T07:55:54.635Z,97403.50
2024-02-02T07:56:57.670Z,97392.88
2024-02-02T07:58:02.077Z,97397.25
2024-02-02T07:59:05.924Z,97397.53
2024-02-02T08:00:08.802Z,97398.91
2024-02-02T08:01:13.657Z,97385.56
2024-02-02T08:02:15.638Z,97374.97
2024-02-02T08:03:19.120Z,97378.78
2024-02-02T08:04:20.956Z,97379.28
2024-02-02T08:05:22.820Z,97374.16
2024-02-02T08:06:24.812Z,97376.59
2024-02-02T08:07:26.846Z,97378.22
2024-02-02T08:08:32.884Z,97376.88
2024-02-02T08:09:34.667Z,97368.69
2024-02-02T08:10:36.769Z,97371.41
2024-02-02T08:11:39.720Z,97369.50
2024-02-02T08:12:41.464Z,97379.84
2024-02-02T08:13:43.838Z,97375.50
2024-02-02T08:14:45.848Z,97372.50
2024-02-02T08:15:48.568Z,97360.81
2024-02-02T08:16:51.228Z,97372.50
2024-02-02T08:17:53.664Z,97364.34
2024-02-02T08:18:56.804Z,97363.53
2024-02-02T08:19:58.854Z,97366.53
2024-02-02T08:21:04.188Z,97355.66
2024-02-02T08:22:06.114Z,97366.00
2024-02-02T08:23:08.290Z,97364.63
2024-02-02T08:24:11.663Z,97368.97
2024-02-02T08:25:14.242Z,97364.63
2024-02-02T08:26:18.007Z,97365.72
2024-02-02T08:27:21.103Z,97365.44
2024-02-02T08:28:23.014Z,97374.16
2024-02-02T08:29:27.379Z,97379.31
2024-02-02T08:30:29.311Z,97377.16
2024-02-02T08:31:33.483Z,97384.22
2024-02-02T08:32:42.538Z,97370.63
2024-02-02T08:33:45.197Z,97369.00
2024-02-02T08:34:47.033Z,97373.38
2024-02-02T08:35:49.473Z,97372.25
2024-02-02T08:36:51.564Z,97374.47
2024-02-02T08:38:01.697Z,97370.41
2024-02-02T08:39:03.955Z,97372.28
2024-02-02T08:40:07.472Z,97379.09
2024-02-02T08:41:09.945Z,97379.63
2024-02-02T08:42:20.644Z,97373.66
2024-02-02T08:43:23.033Z,97365.78
2024-02-02T08:44:25.435Z,97370.13
2024-02-02T08:45:42.192Z,97369.31
2024-02-02T08:46:47.861Z,97366.00
2024-02-02T08:47:51.580Z,97367.91
2024-02-02T08:48:57.201Z,97355.66
2024-02-02T08:50:02.324Z,97351.31
2024-02-02T08:51:23.371Z,97366.81
2024-02-02T08:52:39.406Z,97364.13
2024-02-02T08:53:43.568Z,97360.84
2024-02-02T08:54:49.075Z,97368.22
2024-02-02T08:55:50.966Z,97373.09
2024-02-02T08:57:07.747Z,97368.47
2024-02-02T08:58:11.327Z,97360.56
2024-02-02T08:59:44.932Z,97363.00
2024-02-02T09:00:50.572Z,97364.38
2024-02-02T09:01:53.238Z,97360.56
2024-02-02T09:03:03.200Z,97363.03
2024-02-02T09:04:46.918Z,97354.31
2024-02-02T09:05:55.763Z,97363.84
2024-02-02T09:06:57.877Z,97364.38
2024-02-02T09:08:03.025Z,97370.63
2024-02-02T09:09:07.213Z,97373.88
2024-02-02T09:10:29.485Z,97379.88
2024-02-02T09:11:31.754Z,97377.69
2024-02-02T09:12:36.230Z,97380.69
2024-02-02T09:13:38.148Z,97378.81
2024-02-02T09:14:42.365Z,97387.22
2024-02-02T09:15:44.106Z,97385.59
2024-02-02T09:16:51.841Z,97392.94
2024-02-02T09:17:53.841Z,97382.03
2024-02-02T09:18:57.230Z,97376.34
2024-02-02T09:19:59.691Z,97384.22
2024-02-02T09:21:03.509Z,97380.97
2024-02-02T09:22:13.685Z,97383.16
2024-02-02T09:23:16.224Z,97379.34
2024-02-02T09:24:52.777Z,97378.81
2024-02-02T09:25:54.745Z,97373.66
2024-02-02T09:26:59.331Z,97370.38
2024-02-02T09:28:01.697Z,97377.19
2024-02-02T09:29:03.544Z,97376.63
2024-02-02T09:30:23.423Z,97378.81
2024-02-02T09:31:27.007Z,97383.16
2024-02-02T09:32:29.023Z,97379.63
2024-02-02T09:33:37.010Z,97384.25
2024-02-02T09:34:39.729Z,97388.59
2024-02-02T09:35:54.544Z,97389.44
2024-02-02T09:36:56.629Z,97393.00
2024-02-02T09:37:59.100Z,97384.28
2024-02-02T09:39:11.451Z,97394.06
2024-02-02T09:40:35.560Z,97385.34
2024-02-02T09:41:49.908Z,97398.97
2024-02-02T09:43:12.649Z,97390.81
2024-02-02T09:44:44.520Z,97388.09
2024-02-02T09:46:06.130Z,97379.66
2024-02-02T09:47:10.868Z,97380.72
2024-02-02T09:48:25.086Z,97384.28
2024-02-02T09:49:48.292Z,97388.63
2024-02-02T09:51:23.783Z,97384.81
2024-02-02T09:52:44.031Z,97390.78
2024-02-02T09:54:01.603Z,97397.59
2024-02-02T09:55:10.221Z,97385.63
2024-02-02T09:56:18.337Z,97385.38
2024-02-02T09:57:45.224Z,97385.09
2024-02-02T09:58:59.860Z,97381.81
2024-02-02T10:00:34.297Z,97389.72
2024-02-02T10:02:24.204Z,97397.34
2024-02-02T10:03:32.138Z,97391.88
2024-02-02T10:04:49.983Z,97381.00
2024-02-02T10:06:07.851Z,97375.59
2024-02-02T10:07:31.985Z,97380.47
2024-02-02T10:09:00.450Z,97386.19
2024-02-02T10:10:28.296Z,97379.13
2024-02-02T10:12:02.014Z,97365.78
2024-02-02T10:13:26.410Z,97364.97
2024-02-02T10:14:59.111Z,97363.34
2024-02-02T10:16:28.532Z,97380.47
2024-02-02T10:17:55.568Z,97375.03
2024-02-02T10:19:35.861Z,97378.03
2024-02-02T10:20:52.717Z,97366.59
2024-02-02T10:22:19.649Z,97373.69
2024-02-02T10:23:40.239Z,97380.75
2024-02-02T10:24:44.020Z,97383.50
2024-02-02T10:26:05.799Z,97377.47
2024-02-02T10:27:31.938Z,97375.31
2024-02-02T10:28:52.877Z,97367.97
2024-02-02T10:30:08.923Z,97377.75
2024-02-02T10:31:26.374Z,97383.47
2024-02-02T10:32:57.520Z,97389.19
2024-02-02T10:34:36.881Z,97394.38
2024-02-02T10:35:48.936Z,97397.34
2024-02-02T10:36:53.970Z,97399.50
2024-02-02T10:38:10.442Z,97406.06
2024-02-02T10:39:46.993Z,97388.94
2024-02-02T10:41:03.202Z,97378.28
2024-02-02T10:42:20.475Z,97373.66
2024-02-02T10:44:06.833Z,97372.84
2024-02-02T10:45:26.666Z,97375.59
2024-02-02T10:46:36.189Z,97363.31
2024-02-02T10:47:57.466Z,97363.63
2024-02-02T10:49:06.693Z,97351.63
2024-02-02T10:50:09.051Z,97359.25
2024-02-02T10:51:33.913Z,97363.88
2024-02-02T10:52:57.230Z,97366.88
2024-02-02T10:54:00.244Z,97363.56
2024-02-02T10:55:05.339Z,97358.13
2024-02-02T10:56:34.146Z,97350.50
2024-02-02T10:57:46.728Z,97353.22
2024-02-02T10:59:00.951Z,97350.78
2024-02-02T11:00:08.876Z,97348.06
2024-02-02T11:01:24.135Z,97346.41
2024-02-02T11:03:07.492Z,97337.69
2024-02-02T11:04:46.886Z,97341.22
2024-02-02T11:06:12.041Z,97336.88
2024-02-02T11:07:41.151Z,97330.34
2024-02-02T11:08:51.341Z,97331.16
2024-02-02T11:10:03.502Z,97321.63
2024-02-02T11:11:09.423Z,97318.63
2024-02-02T11:12:18.308Z,97337.44
2024-02-02T11:13:38.237Z,97336.88
2024-02-02T11:14:45.916Z,97327.06
2024-02-02T11:16:21.341Z,97326.28
2024-02-02T11:17:35.250Z,97323.81
2024-02-02T11:19:03.332Z,97318.63
2024-02-02T11:20:26.481Z,97314.00
2024-02-02T11:21:40.456Z,97303.97
2024-02-02T11:22:57.566Z,97297.16
2024-02-02T11:24:07.929Z,97299.31
2024-02-02T11:25:23.162Z,97302.34
2024-02-02T11:26:39.022Z,97283.28
2024-02-02T11:28:03.180Z,97305.31
2024-02-02T11:29:18.147Z,97298.50
2024-02-02T11:30:45.524Z,97303.59
2024-02-02T11:31:58.642Z,97297.59
2024-02-02T11:33:03.390Z,97291.56
2024-02-02T11:34:20.144Z,97297.78
2024-02-02T11:35:37.437Z,97294.75
2024-02-02T11:36:57.808Z,97285.50
2024-02-02T11:38:03.695Z,97285.22
2024-02-02T11:39:14.966Z,97283.84
2024-02-02T11:40:19.249Z,97272.63
2024-02-02T11:41:22.402Z,97284.34
2024-02-02T11:42:26.175Z,97290.34
2024-02-02T11:43:31.710Z,97291.41
2024-02-02T11:44:35.854Z,97282.72
2024-02-02T11:45:40.589Z,97302.00
2024-02-02T11:46:43.872Z,97286.22
2024-02-02T11:47:53.068Z,97293.25
2024-02-02T11:49:13.161Z,97288.59
2024-02-02T11:50:18.892Z,97295.69
2024-02-02T11:51:24.220Z,97289.97
2024-02-02T11:52:33.141Z,97288.56
2024-02-02T11:53:41.448Z,97280.41
2024-02-02T11:54:46.904Z,97280.94
2024-02-02T11:55:55.203Z,97283.16
2024-02-02T11:56:57.491Z,97271.69
2024-02-02T11:58:03.775Z,97266.19
2024-02-02T11:59:13.724Z,97251.97
2024-02-02T12:00:29.486Z,97270.28
2024-02-02T12:02:00.535Z,97270.00
2024-02-02T12:03:09.915Z,97260.50
2024-02-02T12:04:18.387Z,97265.72
2024-02-02T12:05:26.240Z,97267.28
2024-02-02T12:06:30.315Z,97269.69
2024-02-02T12:07:44.800Z,97264.28
2024-02-02T12:09:19.346Z,97266.13
2024-02-02T12:10:23.784Z,97267.75
2024-02-02T12:11:43.180Z,97263.47
2024-02-02T12:13:07.693Z,97250.91
2024-02-02T12:14:32.230Z,97251.16
2024-02-02T12:15:34.306Z,97234.56
2024-02-02T12:16:36.194Z,97237.00
2024-02-02T12:17:39.439Z,97233.47
2024-02-02T12:18:42.163Z,97236.75
2024-02-02T12:19:45.383Z,97246.78
2024-02-02T12:20:47.870Z,97245.41
2024-02-02T12:21:50.076Z,97241.53
2024-02-02T12:22:52.572Z,97236.59
2024-02-02T12:23:55.870Z,97248.56
2024-02-02T12:24:58.126Z,97243.75
2024-02-02T12:26:02.094Z,97237.16
2024-02-02T12:27:05.134Z,97250.72
2024-02-02T12:28:09.637Z,97249.97
2024-02-02T12:29:14.861Z,97240.16
2024-02-02T12:30:18.046Z,97236.03
2024-02-02T12:31:20.075Z,97245.00
2024-02-02T12:32:22.118Z,97245.88
2024-02-02T12:33:26.717Z,97249.16
2024-02-02T12:34:29.359Z,97255.16
2024-02-02T12:35:32.162Z,97245.59
2024-02-02T12:36:34.285Z,97241.25
2024-02-02T12:37:49.736Z,97241.78
2024-02-02T12:38:52.184Z,97241.25
2024-02-02T12:39:54.426Z,97236.34
2024-02-02T12:40:57.425Z,97234.22
2024-02-02T12:42:00.080Z,97238.03
2024-02-02T12:43:02.950Z,97236.13
2024-02-02T12:44:07.780Z,97237.69
2024-02-02T12:45:17.064Z,97244.50
2024-02-02T12:46:19.477Z,97237.94
2024-02-02T12:47:26.661Z,97226.16
2024-02-02T12:48:33.577Z,97240.34
2024-02-02T12:49:38.193Z,97219.94
2024-02-02T12:50:40.272Z,97223.72
2024-02-02T12:51:42.308Z,97213.06
2024-02-02T12:52:44.778Z,97214.06
2024-02-02T12:53:49.934Z,97223.31
2024-02-02T12:54:53.756Z,97220.84
2024-02-02T12:55:56.099Z,97222.47